createdAt,value
2019-02-16T00:01:30.250Z,0.12
2019-02-16T00:03:59.450Z,0.07
2019-02-16T00:06:29.090Z,-0.13
2019-02-16T00:08:58.492Z,0.04
2019-02-16T00:11:27.749Z,0.18
2019-02-16T00:13:57.371Z,0.19
2019-02-16T00:16:27.170Z,0.07
2019-02-16T00:18:56.492Z,0.20
2019-02-16T00:21:25.771Z,0.30
2019-02-16T00:23:56.091Z,0.27
2019-02-16T00:26:25.290Z,0.32
2019-02-16T00:28:54.565Z,0.27
2019-02-16T00:31:23.694Z,0.25
2019-02-16T00:33:52.891Z,0.38
2019-02-16T00:36:22.293Z,0.37
2019-02-16T00:38:51.805Z,0.26
2019-02-16T00:41:21.291Z,0.35
2019-02-16T00:43:50.507Z,0.36
2019-02-16T00:46:19.962Z,0.32
2019-02-16T00:48:49.309Z,0.31
2019-02-16T00:51:18.686Z,0.34
2019-02-16T00:53:48.124Z,0.33
2019-02-16T00:56:17.402Z,0.60
2019-02-16T00:58:49.962Z,0.72
2019-02-16T01:01:22.651Z,0.83
2019-02-16T01:03:56.770Z,0.92
2019-02-16T01:06:27.290Z,0.92
2019-02-16T01:08:56.610Z,0.92
2019-02-16T01:11:28.051Z,0.87
2019-02-16T01:13:58.050Z,0.87
2019-02-16T01:16:27.971Z,0.74
2019-02-16T01:19:02.290Z,0.66
2019-02-16T01:21:33.402Z,0.61
2019-02-16T01:24:03.117Z,0.54
2019-02-16T01:26:34.883Z,0.53
2019-02-16T01:29:06.851Z,0.39
2019-02-16T01:31:36.811Z,-0.07
2019-02-16T01:34:06.370Z,0.18
2019-02-16T01:36:37.091Z,-0.19
2019-02-16T01:39:07.291Z,-0.12
2019-02-16T01:41:36.811Z,-0.42
2019-02-16T01:44:24.763Z,-0.34
2019-02-16T01:46:55.290Z,-0.12
2019-02-16T01:49:25.010Z,-0.08
2019-02-16T01:51:56.892Z,-0.08
2019-02-16T01:54:29.531Z,-0.15
2019-02-16T01:57:00.451Z,-0.32
2019-02-16T01:59:30.092Z,-0.42
2019-02-16T02:02:00.613Z,-0.57
2019-02-16T02:04:36.526Z,-0.57
2019-02-16T02:07:06.450Z,-0.50
2019-02-16T02:09:35.682Z,-0.41
2019-02-16T02:12:07.330Z,-0.46
2019-02-16T02:14:36.746Z,-0.56
2019-02-16T02:17:06.134Z,-0.57
2019-02-16T02:19:35.606Z,-0.59
2019-02-16T02:22:04.811Z,-0.62
2019-02-16T02:24:34.210Z,-1.01
2019-02-16T02:27:03.811Z,-0.91
2019-02-16T02:29:34.653Z,-0.92
2019-02-16T02:32:04.090Z,-1.00
2019-02-16T02:34:42.694Z,-0.92
2019-02-16T02:37:14.722Z,-1.09
2019-02-16T02:39:44.332Z,-1.07
2019-02-16T02:42:14.051Z,-1.07
2019-02-16T02:44:43.971Z,-0.78
2019-02-16T02:47:13.569Z,-0.78
2019-02-16T02:49:42.972Z,-0.85
2019-02-16T02:52:12.407Z,-0.87
2019-02-16T02:54:42.483Z,-0.90
2019-02-16T02:57:11.874Z,-0.97
2019-02-16T02:59:41.923Z,-1.16
2019-02-16T03:02:11.723Z,-1.18
2019-02-16T03:04:42.372Z,-1.10
2019-02-16T03:07:11.602Z,-1.00
2019-02-16T03:09:41.178Z,-0.97
2019-02-16T03:12:10.850Z,-0.97
2019-02-16T03:14:42.603Z,-0.96
2019-02-16T03:17:12.653Z,-1.01
2019-02-16T03:19:42.123Z,-1.07
2019-02-16T03:22:11.651Z,-1.13
2019-02-16T03:24:42.883Z,-1.10
2019-02-16T03:27:30.331Z,-1.08
2019-02-16T03:30:11.579Z,-0.84
2019-02-16T03:33:00.724Z,-0.68
2019-02-16T03:35:39.574Z,-0.62
2019-02-16T03:38:15.158Z,-0.63
2019-02-16T03:40:47.882Z,-0.61
2019-02-16T03:43:17.089Z,-0.52
2019-02-16T03:45:48.455Z,-0.58
2019-02-16T03:48:18.162Z,-0.51
2019-02-16T03:50:47.528Z,-0.67
2019-02-16T03:53:16.965Z,-0.68
2019-02-16T03:55:46.842Z,-0.88
2019-02-16T03:58:16.164Z,-1.10
2019-02-16T04:00:45.641Z,-1.01
2019-02-16T04:03:14.966Z,-0.93
2019-02-16T04:05:44.290Z,-1.15
2019-02-16T04:08:13.341Z,-0.96
2019-02-16T04:10:42.536Z,-1.10
2019-02-16T04:13:12.054Z,-0.96
2019-02-16T04:15:41.330Z,-1.21
2019-02-16T04:18:10.972Z,-1.27
2019-02-16T04:20:40.189Z,-1.34
2019-02-16T04:23:09.450Z,-1.49
2019-02-16T04:25:40.208Z,-1.32
2019-02-16T04:28:09.604Z,-1.18
2019-02-16T04:30:39.003Z,-1.20
2019-02-16T04:33:08.490Z,-1.15
2019-02-16T04:35:37.690Z,-1.28
2019-02-16T04:38:07.013Z,-1.47
2019-02-16T04:40:36.163Z,-1.61
2019-02-16T04:43:05.570Z,-1.71
2019-02-16T04:45:34.771Z,-1.87
2019-02-16T04:48:04.109Z,-1.62
2019-02-16T04:50:33.362Z,-1.55
2019-02-16T04:53:02.762Z,-1.55
2019-02-16T04:55:32.090Z,-1.44
2019-02-16T04:58:01.442Z,-1.47
2019-02-16T05:00:31.006Z,-1.43
2019-02-16T05:03:01.291Z,-1.37
2019-02-16T05:05:35.130Z,-1.45
2019-02-16T05:08:04.804Z,-1.49
2019-02-16T05:10:34.010Z,-1.52
2019-02-16T05:13:03.403Z,-1.42
2019-02-16T05:15:32.723Z,-1.43
2019-02-16T05:18:02.122Z,-1.55
2019-02-16T05:20:31.532Z,-1.69
2019-02-16T05:23:00.811Z,-1.74
2019-02-16T05:25:30.211Z,-1.61
2019-02-16T05:27:59.402Z,-1.29
2019-02-16T05:30:28.589Z,-1.09
2019-02-16T05:32:57.571Z,-1.07
2019-02-16T05:35:27.122Z,-1.02
2019-02-16T05:37:56.289Z,-1.15
2019-02-16T05:40:25.882Z,-1.07
2019-02-16T05:42:55.132Z,-1.12
2019-02-16T05:45:24.788Z,-1.34
2019-02-16T05:47:54.064Z,-1.40
2019-02-16T05:50:24.718Z,-1.41
2019-02-16T05:52:54.775Z,-1.40
2019-02-16T05:55:24.361Z,-1.52
2019-02-16T05:57:53.699Z,-1.54
2019-02-16T06:00:24.566Z,-1.53
2019-02-16T06:02:53.883Z,-1.46
2019-02-16T06:05:23.282Z,-1.51
2019-02-16T06:07:53.002Z,-1.47
2019-02-16T06:10:22.327Z,-1.54
2019-02-16T06:12:51.730Z,-1.54
2019-02-16T06:15:21.082Z,-1.52
2019-02-16T06:17:50.603Z,-1.51
2019-02-16T06:20:20.010Z,-1.68
2019-02-16T06:22:49.201Z,-1.53
2019-02-16T06:25:18.739Z,-1.40
2019-02-16T06:27:48.086Z,-1.43
2019-02-16T06:30:17.401Z,-1.61
2019-02-16T06:32:46.964Z,-1.58
2019-02-16T06:35:20.617Z,-1.69
2019-02-16T06:37:49.169Z,-1.71
2019-02-16T06:40:18.480Z,-1.68
2019-02-16T06:42:59.971Z,-1.60
2019-02-16T06:45:31.333Z,-1.63
2019-02-16T06:48:09.530Z,-1.64
2019-02-16T06:50:45.450Z,-1.76
2019-02-16T06:53:14.987Z,-1.62
2019-02-16T06:55:56.290Z,-1.35
2019-02-16T06:58:31.013Z,-1.07
2019-02-16T07:01:00.926Z,-1.08
2019-02-16T07:03:30.922Z,-0.89
2019-02-16T07:06:03.929Z,-0.91
2019-02-16T07:08:33.081Z,-0.83
2019-02-16T07:11:02.491Z,-0.83
2019-02-16T07:13:34.882Z,-0.79
2019-02-16T07:16:24.225Z,-0.77
2019-02-16T07:19:06.890Z,-0.58
2019-02-16T07:21:37.150Z,-0.41
2019-02-16T07:24:06.352Z,-0.22
2019-02-16T07:26:35.787Z,-0.06
2019-02-16T07:29:13.053Z,0.04
2019-02-16T07:31:42.369Z,0.19
2019-02-16T07:34:11.654Z,0.33
2019-02-16T07:36:47.081Z,0.49
2019-02-16T07:39:16.429Z,0.66
2019-02-16T07:41:45.811Z,0.82
2019-02-16T07:44:19.628Z,1.09
2019-02-16T07:46:59.650Z,1.38
2019-02-16T07:49:42.769Z,1.60
2019-02-16T07:52:29.690Z,2.12
2019-02-16T07:55:06.371Z,2.35
2019-02-16T07:57:43.451Z,2.69
2019-02-16T08:00:14.289Z,2.78
2019-02-16T08:02:57.218Z,2.83
2019-02-16T08:05:28.010Z,2.94
2019-02-16T08:07:59.091Z,3.09
2019-02-16T08:10:35.322Z,3.34
2019-02-16T08:13:22.129Z,3.36
2019-02-16T08:15:59.211Z,3.44
2019-02-16T08:18:47.890Z,3.63
2019-02-16T08:21:24.742Z,3.87
2019-02-16T08:23:58.125Z,4.07
2019-02-16T08:26:32.052Z,4.23
2019-02-16T08:29:04.342Z,4.46
2019-02-16T08:31:35.556Z,4.84
2019-02-16T08:34:09.162Z,5.13
2019-02-16T08:36:41.404Z,5.47
2019-02-16T08:39:15.050Z,5.78
2019-02-16T08:41:48.929Z,6.02
2019-02-16T08:44:21.458Z,6.28
2019-02-16T08:47:08.401Z,6.63
2019-02-16T08:49:39.130Z,6.81
2019-02-16T08:52:12.851Z,7.19
2019-02-16T08:54:52.611Z,7.48
2019-02-16T08:57:23.415Z,7.71
2019-02-16T08:59:57.320Z,7.99
2019-02-16T09:02:33.299Z,8.29
2019-02-16T09:05:07.011Z,8.56
2019-02-16T09:07:38.172Z,8.90
2019-02-16T09:10:09.814Z,9.24
2019-02-16T09:12:44.810Z,9.55
2019-02-16T09:15:33.572Z,9.82
2019-02-16T09:18:10.335Z,10.36
2019-02-16T09:20:59.132Z,11.55
2019-02-16T09:23:36.496Z,13.62
2019-02-16T09:26:07.133Z,15.31
2019-02-16T09:28:41.586Z,16.59
2019-02-16T09:31:30.971Z,16.53
2019-02-16T09:34:02.040Z,17.59
2019-02-16T09:36:32.987Z,18.44
2019-02-16T09:39:09.524Z,18.53
2019-02-16T09:41:42.970Z,18.30
2019-02-16T09:44:32.208Z,17.36
2019-02-16T09:47:09.299Z,17.15
2019-02-16T09:49:46.212Z,16.84
2019-02-16T09:52:16.815Z,17.22
2019-02-16T09:55:07.406Z,16.52
2019-02-16T09:57:38.170Z,15.74
2019-02-16T10:00:11.316Z,16.47
2019-02-16T10:02:48.131Z,16.57
2019-02-16T10:05:34.272Z,15.84
2019-02-16T10:08:11.585Z,16.48
2019-02-16T10:10:42.398Z,16.74
2019-02-16T10:13:29.252Z,16.65
2019-02-16T10:16:08.974Z,17.12
2019-02-16T10:18:49.130Z,16.74
2019-02-16T10:21:20.892Z,17.45
2019-02-16T10:23:54.187Z,17.91
2019-02-16T10:26:34.531Z,19.18
2019-02-16T10:29:11.133Z,20.18
2019-02-16T10:31:58.003Z,20.44
2019-02-16T10:34:31.531Z,20.64
2019-02-16T10:37:05.614Z,21.16
2019-02-16T10:39:36.450Z,21.88
2019-02-16T10:42:09.924Z,21.08
2019-02-16T10:44:46.428Z,21.14
2019-02-16T10:47:20.406Z,19.77
2019-02-16T10:49:53.148Z,19.20
2019-02-16T10:52:29.564Z,20.04
2019-02-16T10:55:01.334Z,19.85
2019-02-16T10:57:38.175Z,20.06
2019-02-16T11:00:20.130Z,20.60
2019-02-16T11:02:56.690Z,21.54
2019-02-16T11:05:30.482Z,21.00
2019-02-16T11:08:01.285Z,21.63
2019-02-16T11:10:37.882Z,21.73
2019-02-16T11:13:14.763Z,21.43
2019-02-16T11:15:45.493Z,21.96
2019-02-16T11:18:25.531Z,22.38
2019-02-16T11:21:11.331Z,23.53
2019-02-16T11:23:42.043Z,23.36
2019-02-16T11:26:18.531Z,23.13
2019-02-16T11:29:04.505Z,23.77
2019-02-16T11:31:51.317Z,23.97
2019-02-16T11:34:30.970Z,24.05
2019-02-16T11:37:01.563Z,23.54
2019-02-16T11:39:48.288Z,23.36
2019-02-16T11:42:35.211Z,23.32
2019-02-16T11:45:09.851Z,21.33
2019-02-16T11:47:40.490Z,21.75
2019-02-16T11:50:20.736Z,21.32
2019-02-16T11:53:07.853Z,20.75
2019-02-16T11:55:55.053Z,20.64
2019-02-16T11:58:41.031Z,20.67
2019-02-16T12:01:11.856Z,21.26
2019-02-16T12:03:58.812Z,21.26
2019-02-16T12:06:41.931Z,21.98
2019-02-16T12:09:18.064Z,23.69
2019-02-16T12:11:57.610Z,23.24
2019-02-16T12:14:44.856Z,24.01
2019-02-16T12:17:28.247Z,23.34
2019-02-16T12:19:59.084Z,23.66
2019-02-16T12:22:39.054Z,24.09
2019-02-16T12:25:09.771Z,25.49
2019-02-16T12:27:40.931Z,26.41
2019-02-16T12:30:15.203Z,25.08
2019-02-16T12:32:53.283Z,26.00
2019-02-16T12:35:30.202Z,25.29
2019-02-16T12:38:13.053Z,24.47
2019-02-16T12:40:49.805Z,23.25
2019-02-16T12:43:32.532Z,23.17
2019-02-16T12:46:15.695Z,23.74
2019-02-16T12:48:48.123Z,23.46
2019-02-16T12:51:25.215Z,24.68
2019-02-16T12:53:58.927Z,25.25
2019-02-16T12:56:32.591Z,25.91
2019-02-16T12:59:12.497Z,26.85
2019-02-16T13:01:52.274Z,26.70
2019-02-16T13:04:28.642Z,25.68
2019-02-16T13:07:08.288Z,24.13
2019-02-16T13:09:44.325Z,23.44
2019-02-16T13:12:37.343Z,24.02
2019-02-16T13:15:20.347Z,23.50
2019-02-16T13:18:15.662Z,23.21
2019-02-16T13:21:08.007Z,24.26
2019-02-16T13:23:41.736Z,25.58
2019-02-16T13:26:14.756Z,24.94
2019-02-16T13:28:47.657Z,25.73
2019-02-16T13:31:26.381Z,25.48
2019-02-16T13:34:13.276Z,25.80
2019-02-16T13:36:46.257Z,26.09
2019-02-16T13:39:28.620Z,25.24
2019-02-16T13:41:59.093Z,23.91
2019-02-16T13:44:29.411Z,24.42
2019-02-16T13:47:05.980Z,25.22
2019-02-16T13:49:38.856Z,25.41
2019-02-16T13:52:12.153Z,24.43
2019-02-16T13:54:42.579Z,25.22
2019-02-16T13:57:18.680Z,26.32
2019-02-16T14:00:05.090Z,26.17
2019-02-16T14:02:44.886Z,26.02
2019-02-16T14:05:27.690Z,26.61
2019-02-16T14:07:58.125Z,26.63
2019-02-16T14:10:40.997Z,26.85
2019-02-16T14:13:11.198Z,26.50
2019-02-16T14:15:47.495Z,25.88
2019-02-16T14:18:16.415Z,25.98
2019-02-16T14:20:45.428Z,25.90
2019-02-16T14:23:14.296Z,25.22
2019-02-16T14:25:45.585Z,24.66
2019-02-16T14:28:14.695Z,24.91
2019-02-16T14:30:43.496Z,24.51
2019-02-16T14:33:12.412Z,24.50
2019-02-16T14:35:41.112Z,24.68
2019-02-16T14:38:14.260Z,24.19
2019-02-16T14:40:43.377Z,24.66
2019-02-16T14:43:12.370Z,23.17
2019-02-16T14:45:41.947Z,22.86
2019-02-16T14:48:10.974Z,22.96
2019-02-16T14:50:39.691Z,22.81
2019-02-16T14:53:08.460Z,23.30
2019-02-16T14:55:37.265Z,23.87
2019-02-16T14:58:06.058Z,23.80
2019-02-16T15:00:34.861Z,23.77
2019-02-16T15:03:03.496Z,23.13
2019-02-16T15:05:32.205Z,22.75
2019-02-16T15:08:00.935Z,22.39
2019-02-16T15:10:29.655Z,22.44
2019-02-16T15:12:58.285Z,22.75
2019-02-16T15:15:27.020Z,22.50
2019-02-16T15:17:55.826Z,21.74
2019-02-16T15:20:24.680Z,21.08
2019-02-16T15:22:53.375Z,21.12
2019-02-16T15:25:22.561Z,21.11
2019-02-16T15:27:51.223Z,20.45
2019-02-16T15:30:21.460Z,20.28
2019-02-16T15:32:50.203Z,20.34
2019-02-16T15:35:20.509Z,20.45
2019-02-16T15:37:49.419Z,20.21
2019-02-16T15:40:18.107Z,20.07
2019-02-16T15:42:47.035Z,19.22
2019-02-16T15:45:15.815Z,18.85
2019-02-16T15:47:44.722Z,18.70
2019-02-16T15:50:15.341Z,18.53
2019-02-16T15:52:43.965Z,18.29
2019-02-16T15:55:13.256Z,18.16
2019-02-16T15:57:42.056Z,18.01
2019-02-16T16:00:20.578Z,17.51
2019-02-16T16:02:49.580Z,16.79
2019-02-16T16:05:18.375Z,16.23
2019-02-16T16:07:51.660Z,15.65
2019-02-16T16:10:22.072Z,15.22
2019-02-16T16:13:07.188Z,14.54
2019-02-16T16:15:44.831Z,14.10
2019-02-16T16:18:27.500Z,13.65
2019-02-16T16:21:02.017Z,13.16
2019-02-16T16:23:35.428Z,12.60
2019-02-16T16:26:21.736Z,12.28
2019-02-16T16:29:00.449Z,11.98
2019-02-16T16:31:24.185Z,11.70
2019-02-16T16:34:00.616Z,11.55
2019-02-16T16:36:33.901Z,11.38
2019-02-16T16:39:20.616Z,11.15
2019-02-16T16:41:51.096Z,11.24
2019-02-16T16:44:21.418Z,11.14
2019-02-16T16:46:52.209Z,11.11
2019-02-16T16:49:25.701Z,10.61
2019-02-16T16:52:05.186Z,10.45
2019-02-16T16:54:38.786Z,9.75
2019-02-16T16:57:09.106Z,9.60
2019-02-16T16:59:45.118Z,9.42
2019-02-16T17:02:31.337Z,9.25
2019-02-16T17:05:13.978Z,9.40
2019-02-16T17:07:45.011Z,8.94
2019-02-16T17:10:32.117Z,8.79
2019-02-16T17:13:09.205Z,8.46
2019-02-16T17:15:49.780Z,8.30
2019-02-16T17:18:23.015Z,8.37
2019-02-16T17:21:02.385Z,8.31
2019-02-16T17:23:32.775Z,8.42
2019-02-16T17:26:09.260Z,8.10
2019-02-16T17:28:40.615Z,8.09
2019-02-16T17:31:14.636Z,7.67
2019-02-16T17:34:00.955Z,7.24
2019-02-16T17:36:31.660Z,7.30
2019-02-16T17:39:12.300Z,7.44
2019-02-16T17:41:46.185Z,7.60
2019-02-16T17:44:33.076Z,7.52
2019-02-16T17:47:07.177Z,7.37
2019-02-16T17:49:54.880Z,7.21
2019-02-16T17:52:42.321Z,7.14
2019-02-16T17:55:19.331Z,7.10
2019-02-16T17:57:51.018Z,7.21
2019-02-16T18:00:31.718Z,6.93
2019-02-16T18:03:02.755Z,6.87
2019-02-16T18:05:34.382Z,6.63
2019-02-16T18:08:14.701Z,6.61
2019-02-16T18:10:58.216Z,6.07
2019-02-16T18:13:35.015Z,6.16
2019-02-16T18:16:12.875Z,5.82
2019-02-16T18:18:43.329Z,5.97
2019-02-16T18:21:16.787Z,5.99
2019-02-16T18:23:50.075Z,5.79
2019-02-16T18:26:29.395Z,5.53
2019-02-16T18:29:19.107Z,5.43
2019-02-16T18:32:05.988Z,5.44
2019-02-16T18:34:53.886Z,5.18
2019-02-16T18:37:27.754Z,5.21
2019-02-16T18:40:03.676Z,5.44
2019-02-16T18:42:49.210Z,5.66
2019-02-16T18:45:20.308Z,5.53
2019-02-16T18:48:07.751Z,5.57
2019-02-16T18:50:41.676Z,5.47
2019-02-16T18:53:29.718Z,5.23
2019-02-16T18:56:03.815Z,5.12
2019-02-16T18:58:37.433Z,5.06
2019-02-16T19:01:11.976Z,4.87
2019-02-16T19:03:46.236Z,4.76
2019-02-16T19:06:33.373Z,4.79
2019-02-16T19:09:22.536Z,4.77
2019-02-16T19:11:56.141Z,4.75
2019-02-16T19:14:30.134Z,4.41
2019-02-16T19:17:04.792Z,4.64
2019-02-16T19:19:42.451Z,4.76
2019-02-16T19:22:16.936Z,4.92
2019-02-16T19:24:52.775Z,4.75
2019-02-16T19:27:26.697Z,4.34
2019-02-16T19:29:58.315Z,4.52
2019-02-16T19:32:33.437Z,4.30
2019-02-16T19:35:07.508Z,4.00
2019-02-16T19:37:48.460Z,4.11
2019-02-16T19:40:22.621Z,3.90
2019-02-16T19:42:53.824Z,4.15
2019-02-16T19:45:31.501Z,4.19
2019-02-16T19:48:05.741Z,3.98
2019-02-16T19:50:49.269Z,3.85
2019-02-16T19:53:32.836Z,3.72
2019-02-16T19:56:20.785Z,3.71
2019-02-16T19:58:52.456Z,3.80
2019-02-16T20:01:24.135Z,3.67
2019-02-16T20:03:58.376Z,3.49
2019-02-16T20:06:30.389Z,3.41
2019-02-16T20:09:14.537Z,3.17
2019-02-16T20:12:01.576Z,3.01
2019-02-16T20:14:39.025Z,2.59
2019-02-16T20:17:19.020Z,2.21
2019-02-16T20:20:06.787Z,2.50
2019-02-16T20:22:38.436Z,2.48
2019-02-16T20:25:22.575Z,2.33
2019-02-16T20:28:00.144Z,2.18
2019-02-16T20:30:36.473Z,2.22
2019-02-16T20:33:10.485Z,2.23
2019-02-16T20:35:46.588Z,2.28
2019-02-16T20:38:17.027Z,2.59
2019-02-16T20:40:49.264Z,2.51
2019-02-16T20:43:20.936Z,1.91
2019-02-16T20:45:51.985Z,1.60
2019-02-16T20:48:29.414Z,1.35
2019-02-16T20:51:15.570Z,1.27
2019-02-16T20:53:48.349Z,1.35
2019-02-16T20:56:20.162Z,1.07
2019-02-16T20:58:51.815Z,1.28
2019-02-16T21:01:23.175Z,1.39
2019-02-16T21:03:53.584Z,1.39
2019-02-16T21:06:40.621Z,1.29
2019-02-16T21:09:27.350Z,1.12
2019-02-16T21:12:01.908Z,1.09
2019-02-16T21:14:46.239Z,1.21
2019-02-16T21:17:24.526Z,1.40
2019-02-16T21:20:01.647Z,1.51
2019-02-16T21:22:39.200Z,1.29
2019-02-16T21:25:16.195Z,1.15
2019-02-16T21:27:57.435Z,1.11
2019-02-16T21:30:20.225Z,1.65
2019-02-16T21:32:50.615Z,1.51
2019-02-16T21:35:20.937Z,1.47
2019-02-16T21:38:08.395Z,1.18
2019-02-16T21:40:38.710Z,1.22
2019-02-16T21:43:14.978Z,0.87
2019-02-16T21:45:46.928Z,0.98
2019-02-16T21:48:33.955Z,0.96
2019-02-16T21:51:16.597Z,0.95
2019-02-16T21:53:47.290Z,1.07
2019-02-16T21:56:17.921Z,0.98
2019-02-16T21:59:04.735Z,0.80
2019-02-16T22:01:41.489Z,0.72
2019-02-16T22:04:27.326Z,0.71
2019-02-16T22:06:57.915Z,0.58
2019-02-16T22:09:31.495Z,0.47
2019-02-16T22:12:04.499Z,0.36
2019-02-16T22:14:33.286Z,0.38
2019-02-16T22:17:02.181Z,0.36
2019-02-16T22:19:30.861Z,0.42
2019-02-16T22:21:59.645Z,0.40
2019-02-16T22:24:28.540Z,0.43
2019-02-16T22:26:57.256Z,0.35
2019-02-16T22:29:26.115Z,0.32
2019-02-16T22:31:54.895Z,0.27
2019-02-16T22:34:23.687Z,0.31
2019-02-16T22:36:52.469Z,0.47
2019-02-16T22:39:21.365Z,0.30
2019-02-16T22:41:50.098Z,0.18
2019-02-16T22:44:18.941Z,0.24
2019-02-16T22:46:47.660Z,0.22
2019-02-16T22:49:16.515Z,-0.15
2019-02-16T22:51:45.192Z,-0.13
2019-02-16T22:54:14.080Z,-0.06
2019-02-16T22:56:42.771Z,-0.17
2019-02-16T22:59:11.756Z,-0.13
2019-02-16T23:01:40.461Z,-0.05
2019-02-16T23:04:09.337Z,-0.11
2019-02-16T23:06:38.006Z,-0.27
2019-02-16T23:09:09.475Z,-0.42
2019-02-16T23:11:38.363Z,-0.42
2019-02-16T23:14:07.007Z,-0.56
2019-02-16T23:16:35.936Z,-0.55
2019-02-16T23:19:04.626Z,-0.65
2019-02-16T23:21:33.486Z,-0.56
2019-02-16T23:24:02.293Z,-0.61
2019-02-16T23:26:30.977Z,-0.83
2019-02-16T23:28:59.625Z,-0.91
2019-02-16T23:31:28.639Z,-0.45
2019-02-16T23:33:57.425Z,-0.33
2019-02-16T23:36:26.323Z,-0.17
2019-02-16T23:38:55.420Z,-0.26
2019-02-16T23:41:24.226Z,-0.45
2019-02-16T23:43:53.301Z,-0.47
2019-02-16T23:46:22.075Z,-0.65
2019-02-16T23:48:50.942Z,-0.72
2019-02-16T23:51:19.987Z,-0.62
2019-02-16T23:53:48.675Z,-0.68
2019-02-16T23:56:17.586Z,-0.71
2019-02-16T23:58:49.164Z,-0.75
